sensor_id;sensor_type;location;lat;lon;timestamp;P1;durP1;ratioP1;P2;durP2;ratioP2
19566;SDS011;9930;49.240;8.548;2023-07-30T00:01:01;3.00;;;2.78;;
19566;SDS011;9930;49.240;8.548;2023-07-30T00:03:27;2.90;;;2.70;;
19566;SDS011;9930;49.240;8.548;2023-07-30T00:05:57;2.65;;;2.45;;
19566;SDS011;9930;49.240;8.548;2023-07-30T00:08:25;3.38;;;2.65;;
19566;SDS011;9930;49.240;8.548;2023-07-30T00:10:58;2.30;;;2.10;;
19566;SDS011;9930;49.240;8.548;2023-07-30T00:13:26;2.10;;;2.00;;
19566;SDS011;9930;49.240;8.548;2023-07-30T00:15:54;2.42;;;2.22;;
19566;SDS011;9930;49.240;8.548;2023-07-30T00:18:20;2.20;;;2.00;;
19566;SDS011;9930;49.240;8.548;2023-07-30T00:20:48;2.05;;;1.88;;
19566;SDS011;9930;49.240;8.548;2023-07-30T00:23:13;2.10;;;1.90;;
19566;SDS011;9930;49.240;8.548;2023-07-30T00:25:39;2.13;;;1.92;;
19566;SDS011;9930;49.240;8.548;2023-07-30T00:28:05;2.40;;;2.05;;
19566;SDS011;9930;49.240;8.548;2023-07-30T00:30:30;2.22;;;2.03;;
19566;SDS011;9930;49.240;8.548;2023-07-30T00:32:56;1.90;;;1.80;;
19566;SDS011;9930;49.240;8.548;2023-07-30T00:35:26;2.38;;;1.75;;
19566;SDS011;9930;49.240;8.548;2023-07-30T00:37:52;2.08;;;1.52;;
19566;SDS011;9930;49.240;8.548;2023-07-30T00:40:17;2.00;;;1.60;;
19566;SDS011;9930;49.240;8.548;2023-07-30T00:42:43;1.50;;;1.40;;
19566;SDS011;9930;49.240;8.548;2023-07-30T00:45:14;1.67;;;1.58;;
19566;SDS011;9930;49.240;8.548;2023-07-30T00:47:45;1.60;;;1.50;;
19566;SDS011;9930;49.240;8.548;2023-07-30T00:50:12;1.40;;;1.30;;
19566;SDS011;9930;49.240;8.548;2023-07-30T00:52:45;1.48;;;1.38;;
19566;SDS011;9930;49.240;8.548;2023-07-30T00:55:13;1.27;;;1.20;;
19566;SDS011;9930;49.240;8.548;2023-07-30T00:57:41;1.23;;;1.23;;
19566;SDS011;9930;49.240;8.548;2023-07-30T01:00:08;1.38;;;1.27;;
19566;SDS011;9930;49.240;8.548;2023-07-30T01:02:37;1.50;;;1.38;;
19566;SDS011;9930;49.240;8.548;2023-07-30T01:05:03;1.40;;;1.30;;
19566;SDS011;9930;49.240;8.548;2023-07-30T01:07:30;1.40;;;1.30;;
19566;SDS011;9930;49.240;8.548;2023-07-30T01:10:01;1.40;;;1.30;;
19566;SDS011;9930;49.240;8.548;2023-07-30T01:12:32;1.50;;;1.40;;
19566;SDS011;9930;49.240;8.548;2023-07-30T01:15:00;1.80;;;1.70;;
19566;SDS011;9930;49.240;8.548;2023-07-30T01:17:26;1.65;;;1.20;;
19566;SDS011;9930;49.240;8.548;2023-07-30T01:19:53;1.40;;;1.30;;
19566;SDS011;9930;49.240;8.548;2023-07-30T01:22:20;1.10;;;1.10;;
19566;SDS011;9930;49.240;8.548;2023-07-30T01:24:47;1.40;;;1.30;;
19566;SDS011;9930;49.240;8.548;2023-07-30T01:27:19;1.45;;;1.35;;
19566;SDS011;9930;49.240;8.548;2023-07-30T01:30:03;3.22;;;1.50;;
19566;SDS011;9930;49.240;8.548;2023-07-30T01:32:45;1.15;;;1.13;;
19566;SDS011;9930;49.240;8.548;2023-07-30T01:35:17;1.92;;;1.40;;
19566;SDS011;9930;49.240;8.548;2023-07-30T01:37:50;1.40;;;1.30;;
19566;SDS011;9930;49.240;8.548;2023-07-30T01:40:20;1.60;;;1.50;;
19566;SDS011;9930;49.240;8.548;2023-07-30T01:42:49;1.40;;;1.30;;
19566;SDS011;9930;49.240;8.548;2023-07-30T01:45:15;1.60;;;1.50;;
19566;SDS011;9930;49.240;8.548;2023-07-30T01:47:48;1.60;;;1.50;;
19566;SDS011;9930;49.240;8.548;2023-07-30T01:50:14;1.25;;;1.17;;
19566;SDS011;9930;49.240;8.548;2023-07-30T01:52:40;1.40;;;1.30;;
19566;SDS011;9930;49.240;8.548;2023-07-30T01:55:07;1.42;;;1.33;;
19566;SDS011;9930;49.240;8.548;2023-07-30T01:57:43;1.08;;;1.08;;
19566;SDS011;9930;49.240;8.548;2023-07-30T02:00:14;2.20;;;1.80;;
19566;SDS011;9930;49.240;8.548;2023-07-30T02:02:42;1.50;;;1.40;;
19566;SDS011;9930;49.240;8.548;2023-07-30T02:05:11;1.40;;;1.30;;
19566;SDS011;9930;49.240;8.548;2023-07-30T02:07:37;1.48;;;1.38;;
19566;SDS011;9930;49.240;8.548;2023-07-30T02:10:03;2.17;;;1.27;;
19566;SDS011;9930;49.240;8.548;2023-07-30T02:12:32;1.45;;;1.35;;
19566;SDS011;9930;49.240;8.548;2023-07-30T02:14:58;1.75;;;1.65;;
19566;SDS011;9930;49.240;8.548;2023-07-30T02:17:23;1.80;;;1.58;;
19566;SDS011;9930;49.240;8.548;2023-07-30T02:19:49;1.17;;;1.17;;
19566;SDS011;9930;49.240;8.548;2023-07-30T02:22:15;1.60;;;1.50;;
19566;SDS011;9930;49.240;8.548;2023-07-30T02:24:48;1.60;;;1.50;;
19566;SDS011;9930;49.240;8.548;2023-07-30T02:27:15;1.50;;;1.40;;
19566;SDS011;9930;49.240;8.548;2023-07-30T02:29:42;1.63;;;1.52;;
19566;SDS011;9930;49.240;8.548;2023-07-30T02:32:12;1.70;;;1.60;;
19566;SDS011;9930;49.240;8.548;2023-07-30T02:34:38;1.67;;;1.58;;
19566;SDS011;9930;49.240;8.548;2023-07-30T02:37:04;1.50;;;1.40;;
19566;SDS011;9930;49.240;8.548;2023-07-30T02:39:29;1.50;;;1.40;;
19566;SDS011;9930;49.240;8.548;2023-07-30T02:41:55;2.10;;;1.40;;
19566;SDS011;9930;49.240;8.548;2023-07-30T02:44:23;3.13;;;1.70;;
19566;SDS011;9930;49.240;8.548;2023-07-30T02:46:49;1.70;;;1.60;;
19566;SDS011;9930;49.240;8.548;2023-07-30T02:49:14;1.95;;;1.55;;
19566;SDS011;9930;49.240;8.548;2023-07-30T02:51:40;1.50;;;1.40;;
19566;SDS011;9930;49.240;8.548;2023-07-30T02:54:14;1.80;;;1.65;;
19566;SDS011;9930;49.240;8.548;2023-07-30T02:56:45;2.00;;;1.80;;
19566;SDS011;9930;49.240;8.548;2023-07-30T02:59:14;1.52;;;1.42;;
19566;SDS011;9930;49.240;8.548;2023-07-30T03:01:41;2.80;;;1.63;;
19566;SDS011;9930;49.240;8.548;2023-07-30T03:04:12;1.80;;;1.70;;
19566;SDS011;9930;49.240;8.548;2023-07-30T03:06:43;1.60;;;1.50;;
19566;SDS011;9930;49.240;8.548;2023-07-30T03:09:09;1.77;;;1.67;;
19566;SDS011;9930;49.240;8.548;2023-07-30T03:11:37;2.75;;;1.77;;
19566;SDS011;9930;49.240;8.548;2023-07-30T03:14:03;2.97;;;1.90;;
19566;SDS011;9930;49.240;8.548;2023-07-30T03:16:29;4.38;;;2.42;;
19566;SDS011;9930;49.240;8.548;2023-07-30T03:18:59;2.50;;;2.25;;
19566;SDS011;9930;49.240;8.548;2023-07-30T03:21:25;3.28;;;2.28;;
19566;SDS011;9930;49.240;8.548;2023-07-30T03:23:50;2.50;;;2.08;;
19566;SDS011;9930;49.240;8.548;2023-07-30T03:26:18;1.95;;;1.85;;
19566;SDS011;9930;49.240;8.548;2023-07-30T03:28:44;2.08;;;1.88;;
19566;SDS011;9930;49.240;8.548;2023-07-30T03:31:10;1.90;;;1.80;;
19566;SDS011;9930;49.240;8.548;2023-07-30T03:33:40;2.10;;;1.90;;
19566;SDS011;9930;49.240;8.548;2023-07-30T03:36:12;1.65;;;1.55;;
19566;SDS011;9930;49.240;8.548;2023-07-30T03:38:42;2.88;;;2.08;;
19566;SDS011;9930;49.240;8.548;2023-07-30T03:41:11;1.92;;;1.77;;
19566;SDS011;9930;49.240;8.548;2023-07-30T03:43:38;1.83;;;1.73;;
19566;SDS011;9930;49.240;8.548;2023-07-30T03:46:03;2.00;;;1.90;;
19566;SDS011;9930;49.240;8.548;2023-07-30T03:48:29;2.17;;;1.98;;
19566;SDS011;9930;49.240;8.548;2023-07-30T03:50:55;1.70;;;1.60;;
19566;SDS011;9930;49.240;8.548;2023-07-30T03:53:21;2.33;;;1.73;;
19566;SDS011;9930;49.240;8.548;2023-07-30T03:55:47;2.00;;;1.80;;
19566;SDS011;9930;49.240;8.548;2023-07-30T03:58:16;2.00;;;1.90;;
19566;SDS011;9930;49.240;8.548;2023-07-30T04:00:42;2.30;;;1.90;;
19566;SDS011;9930;49.240;8.548;2023-07-30T04:03:10;2.42;;;1.80;;
19566;SDS011;9930;49.240;8.548;2023-07-30T04:05:41;1.90;;;1.80;;
19566;SDS011;9930;49.240;8.548;2023-07-30T04:08:08;2.53;;;2.15;;
19566;SDS011;9930;49.240;8.548;2023-07-30T04:10:33;2.30;;;2.10;;
19566;SDS011;9930;49.240;8.548;2023-07-30T04:13:01;2.30;;;2.15;;
19566;SDS011;9930;49.240;8.548;2023-07-30T04:15:27;2.22;;;2.13;;
19566;SDS011;9930;49.240;8.548;2023-07-30T04:17:55;2.88;;;2.35;;
19566;SDS011;9930;49.240;8.548;2023-07-30T04:20:21;2.40;;;2.20;;
19566;SDS011;9930;49.240;8.548;2023-07-30T04:22:46;2.10;;;2.00;;
19566;SDS011;9930;49.240;8.548;2023-07-30T04:25:15;2.20;;;2.00;;
19566;SDS011;9930;49.240;8.548;2023-07-30T04:27:41;2.42;;;2.22;;
19566;SDS011;9930;49.240;8.548;2023-07-30T04:30:08;2.13;;;2.00;;
19566;SDS011;9930;49.240;8.548;2023-07-30T04:32:34;2.85;;;2.42;;
19566;SDS011;9930;49.240;8.548;2023-07-30T04:35:00;2.47;;;2.28;;
19566;SDS011;9930;49.240;8.548;2023-07-30T04:37:31;2.25;;;2.15;;
19566;SDS011;9930;49.240;8.548;2023-07-30T04:40:01;2.50;;;2.30;;
19566;SDS011;9930;49.240;8.548;2023-07-30T04:42:27;2.30;;;2.10;;
19566;SDS011;9930;49.240;8.548;2023-07-30T04:44:58;2.60;;;2.50;;
19566;SDS011;9930;49.240;8.548;2023-07-30T04:47:23;2.33;;;2.22;;
19566;SDS011;9930;49.240;8.548;2023-07-30T04:49:51;2.20;;;2.10;;
19566;SDS011;9930;49.240;8.548;2023-07-30T04:52:19;2.85;;;2.45;;
19566;SDS011;9930;49.240;8.548;2023-07-30T04:54:45;2.60;;;2.40;;
19566;SDS011;9930;49.240;8.548;2023-07-30T04:57:15;2.60;;;2.40;;
19566;SDS011;9930;49.240;8.548;2023-07-30T04:59:41;2.70;;;2.50;;
19566;SDS011;9930;49.240;8.548;2023-07-30T05:02:08;2.63;;;2.42;;
19566;SDS011;9930;49.240;8.548;2023-07-30T05:04:36;2.47;;;2.25;;
19566;SDS011;9930;49.240;8.548;2023-07-30T05:07:03;2.63;;;2.42;;
19566;SDS011;9930;49.240;8.548;2023-07-30T05:09:32;2.75;;;2.50;;
19566;SDS011;9930;49.240;8.548;2023-07-30T05:11:58;2.67;;;2.45;;
19566;SDS011;9930;49.240;8.548;2023-07-30T05:14:23;3.17;;;2.78;;
19566;SDS011;9930;49.240;8.548;2023-07-30T05:16:49;2.72;;;2.28;;
19566;SDS011;9930;49.240;8.548;2023-07-30T05:19:15;2.88;;;2.65;;
19566;SDS011;9930;49.240;8.548;2023-07-30T05:21:42;2.67;;;2.47;;
19566;SDS011;9930;49.240;8.548;2023-07-30T05:24:11;2.78;;;2.50;;
19566;SDS011;9930;49.240;8.548;2023-07-30T05:26:44;2.65;;;2.45;;
19566;SDS011;9930;49.240;8.548;2023-07-30T05:29:10;2.90;;;2.70;;
19566;SDS011;9930;49.240;8.548;2023-07-30T05:31:37;3.35;;;2.50;;
19566;SDS011;9930;49.240;8.548;2023-07-30T05:34:03;2.70;;;2.50;;
19566;SDS011;9930;49.240;8.548;2023-07-30T05:36:29;2.58;;;2.38;;
19566;SDS011;9930;49.240;8.548;2023-07-30T05:38:56;2.95;;;2.70;;
19566;SDS011;9930;49.240;8.548;2023-07-30T05:41:24;2.90;;;2.70;;
19566;SDS011;9930;49.240;8.548;2023-07-30T05:43:50;2.90;;;2.60;;
19566;SDS011;9930;49.240;8.548;2023-07-30T05:46:16;2.97;;;2.53;;
19566;SDS011;9930;49.240;8.548;2023-07-30T05:48:42;2.53;;;2.33;;
19566;SDS011;9930;49.240;8.548;2023-07-30T05:51:08;2.90;;;2.70;;
19566;SDS011;9930;49.240;8.548;2023-07-30T05:53:34;3.00;;;2.67;;
19566;SDS011;9930;49.240;8.548;2023-07-30T05:56:02;2.55;;;2.35;;
19566;SDS011;9930;49.240;8.548;2023-07-30T05:58:32;2.40;;;2.20;;
19566;SDS011;9930;49.240;8.548;2023-07-30T06:00:58;2.65;;;2.45;;
19566;SDS011;9930;49.240;8.548;2023-07-30T06:03:28;2.53;;;2.33;;
19566;SDS011;9930;49.240;8.548;2023-07-30T06:05:56;2.67;;;2.47;;
19566;SDS011;9930;49.240;8.548;2023-07-30T06:08:22;2.40;;;2.25;;
19566;SDS011;9930;49.240;8.548;2023-07-30T06:10:47;2.20;;;2.08;;
19566;SDS011;9930;49.240;8.548;2023-07-30T06:13:14;2.10;;;2.00;;
19566;SDS011;9930;49.240;8.548;2023-07-30T06:15:40;1.88;;;1.77;;
19566;SDS011;9930;49.240;8.548;2023-07-30T06:18:08;2.05;;;1.95;;
19566;SDS011;9930;49.240;8.548;2023-07-30T06:20:33;2.00;;;1.90;;
19566;SDS011;9930;49.240;8.548;2023-07-30T06:22:59;1.95;;;1.85;;
19566;SDS011;9930;49.240;8.548;2023-07-30T06:25:25;1.95;;;1.85;;
19566;SDS011;9930;49.240;8.548;2023-07-30T06:27:50;2.03;;;1.90;;
19566;SDS011;9930;49.240;8.548;2023-07-30T06:30:16;2.13;;;1.92;;
19566;SDS011;9930;49.240;8.548;2023-07-30T06:32:42;2.38;;;2.20;;
19566;SDS011;9930;49.240;8.548;2023-07-30T06:35:08;2.53;;;2.10;;
19566;SDS011;9930;49.240;8.548;2023-07-30T06:37:34;3.03;;;2.30;;
19566;SDS011;9930;49.240;8.548;2023-07-30T06:40:01;2.10;;;2.00;;
19566;SDS011;9930;49.240;8.548;2023-07-30T06:42:31;2.17;;;2.08;;
19566;SDS011;9930;49.240;8.548;2023-07-30T06:45:01;2.00;;;1.90;;
19566;SDS011;9930;49.240;8.548;2023-07-30T06:47:27;1.95;;;1.85;;
19566;SDS011;9930;49.240;8.548;2023-07-30T06:49:53;2.17;;;2.08;;
19566;SDS011;9930;49.240;8.548;2023-07-30T06:52:20;2.25;;;2.05;;
19566;SDS011;9930;49.240;8.548;2023-07-30T06:54:46;1.98;;;1.88;;
19566;SDS011;9930;49.240;8.548;2023-07-30T06:57:12;2.08;;;1.88;;
19566;SDS011;9930;49.240;8.548;2023-07-30T06:59:38;2.20;;;2.00;;
19566;SDS011;9930;49.240;8.548;2023-07-30T07:02:04;2.03;;;1.92;;
19566;SDS011;9930;49.240;8.548;2023-07-30T07:04:31;2.45;;;2.25;;
19566;SDS011;9930;49.240;8.548;2023-07-30T07:06:58;1.92;;;1.83;;
19566;SDS011;9930;49.240;8.548;2023-07-30T07:09:28;2.20;;;2.00;;
19566;SDS011;9930;49.240;8.548;2023-07-30T07:11:54;2.42;;;2.22;;
19566;SDS011;9930;49.240;8.548;2023-07-30T07:14:20;1.83;;;1.73;;
19566;SDS011;9930;49.240;8.548;2023-07-30T07:16:45;2.00;;;1.80;;
19566;SDS011;9930;49.240;8.548;2023-07-30T07:19:13;2.05;;;1.85;;
19566;SDS011;9930;49.240;8.548;2023-07-30T07:21:39;1.88;;;1.77;;
19566;SDS011;9930;49.240;8.548;2023-07-30T07:24:08;1.80;;;1.70;;
19566;SDS011;9930;49.240;8.548;2023-07-30T07:26:34;3.53;;;2.03;;
19566;SDS011;9930;49.240;8.548;2023-07-30T07:29:00;1.80;;;1.70;;
19566;SDS011;9930;49.240;8.548;2023-07-30T07:31:25;1.80;;;1.70;;
19566;SDS011;9930;49.240;8.548;2023-07-30T07:33:52;1.70;;;1.60;;
19566;SDS011;9930;49.240;8.548;2023-07-30T07:36:18;1.80;;;1.70;;
19566;SDS011;9930;49.240;8.548;2023-07-30T07:38:43;1.65;;;1.55;;
19566;SDS011;9930;49.240;8.548;2023-07-30T07:41:25;1.92;;;1.83;;
19566;SDS011;9930;49.240;8.548;2023-07-30T07:43:51;1.80;;;1.70;;
19566;SDS011;9930;49.240;8.548;2023-07-30T07:46:18;2.05;;;1.70;;
19566;SDS011;9930;49.240;8.548;2023-07-30T07:48:44;1.90;;;1.80;;
19566;SDS011;9930;49.240;8.548;2023-07-30T07:51:10;1.95;;;1.85;;
19566;SDS011;9930;49.240;8.548;2023-07-30T07:53:40;1.58;;;1.48;;
19566;SDS011;9930;49.240;8.548;2023-07-30T07:56:08;1.70;;;1.60;;
19566;SDS011;9930;49.240;8.548;2023-07-30T07:58:36;1.90;;;1.60;;
19566;SDS011;9930;49.240;8.548;2023-07-30T08:01:02;1.98;;;1.88;;
19566;SDS011;9930;49.240;8.548;2023-07-30T08:03:28;1.80;;;1.70;;
19566;SDS011;9930;49.240;8.548;2023-07-30T08:05:56;2.05;;;1.90;;
19566;SDS011;9930;49.240;8.548;2023-07-30T08:08:21;1.95;;;1.85;;
19566;SDS011;9930;49.240;8.548;2023-07-30T08:10:51;2.13;;;2.03;;
19566;SDS011;9930;49.240;8.548;2023-07-30T08:13:16;2.17;;;2.08;;
19566;SDS011;9930;49.240;8.548;2023-07-30T08:15:45;2.00;;;1.90;;
19566;SDS011;9930;49.240;8.548;2023-07-30T08:18:13;1.98;;;1.80;;
19566;SDS011;9930;49.240;8.548;2023-07-30T08:20:39;2.13;;;1.92;;
19566;SDS011;9930;49.240;8.548;2023-07-30T08:23:04;2.25;;;2.03;;
19566;SDS011;9930;49.240;8.548;2023-07-30T08:25:30;1.90;;;1.80;;
19566;SDS011;9930;49.240;8.548;2023-07-30T08:27:58;1.90;;;1.80;;
19566;SDS011;9930;49.240;8.548;2023-07-30T08:30:24;2.40;;;1.80;;
19566;SDS011;9930;49.240;8.548;2023-07-30T08:32:49;2.17;;;2.08;;
19566;SDS011;9930;49.240;8.548;2023-07-30T08:35:15;1.95;;;1.85;;
19566;SDS011;9930;49.240;8.548;2023-07-30T08:37:41;2.13;;;1.92;;
19566;SDS011;9930;49.240;8.548;2023-07-30T08:40:10;2.17;;;1.98;;
19566;SDS011;9930;49.240;8.548;2023-07-30T08:42:38;2.20;;;1.80;;
19566;SDS011;9930;49.240;8.548;2023-07-30T08:45:04;1.90;;;1.80;;
19566;SDS011;9930;49.240;8.548;2023-07-30T08:47:39;2.20;;;2.00;;
19566;SDS011;9930;49.240;8.548;2023-07-30T08:50:08;2.30;;;2.10;;
19566;SDS011;9930;49.240;8.548;2023-07-30T08:52:34;2.00;;;1.80;;
19566;SDS011;9930;49.240;8.548;2023-07-30T08:55:01;2.22;;;1.88;;
19566;SDS011;9930;49.240;8.548;2023-07-30T08:57:29;2.10;;;1.90;;
19566;SDS011;9930;49.240;8.548;2023-07-30T09:00:06;2.30;;;2.10;;
19566;SDS011;9930;49.240;8.548;2023-07-30T09:02:41;2.03;;;1.92;;
19566;SDS011;9930;49.240;8.548;2023-07-30T09:05:22;1.80;;;1.70;;
19566;SDS011;9930;49.240;8.548;2023-07-30T09:07:48;2.10;;;1.90;;
19566;SDS011;9930;49.240;8.548;2023-07-30T09:10:16;1.70;;;1.60;;
19566;SDS011;9930;49.240;8.548;2023-07-30T09:12:44;2.10;;;2.00;;
19566;SDS011;9930;49.240;8.548;2023-07-30T09:15:13;1.77;;;1.65;;
19566;SDS011;9930;49.240;8.548;2023-07-30T09:17:38;2.13;;;1.95;;
19566;SDS011;9930;49.240;8.548;2023-07-30T09:20:04;1.63;;;1.52;;
19566;SDS011;9930;49.240;8.548;2023-07-30T09:22:33;2.10;;;1.55;;
19566;SDS011;9930;49.240;8.548;2023-07-30T09:25:05;1.80;;;1.65;;
19566;SDS011;9930;49.240;8.548;2023-07-30T09:27:32;1.77;;;1.67;;
19566;SDS011;9930;49.240;8.548;2023-07-30T09:29:59;1.73;;;1.63;;
19566;SDS011;9930;49.240;8.548;2023-07-30T09:34:55;1.60;;;1.50;;
19566;SDS011;9930;49.240;8.548;2023-07-30T09:37:33;1.90;;;1.80;;
19566;SDS011;9930;49.240;8.548;2023-07-30T09:40:04;1.95;;;1.70;;
19566;SDS011;9930;49.240;8.548;2023-07-30T09:42:37;1.70;;;1.60;;
19566;SDS011;9930;49.240;8.548;2023-07-30T09:45:17;1.65;;;1.55;;
19566;SDS011;9930;49.240;8.548;2023-07-30T09:47:51;1.85;;;1.70;;
19566;SDS011;9930;49.240;8.548;2023-07-30T09:50:24;1.70;;;1.60;;
19566;SDS011;9930;49.240;8.548;2023-07-30T09:52:52;2.00;;;1.70;;
19566;SDS011;9930;49.240;8.548;2023-07-30T09:55:23;2.10;;;1.90;;
19566;SDS011;9930;49.240;8.548;2023-07-30T09:57:49;1.65;;;1.55;;
19566;SDS011;9930;49.240;8.548;2023-07-30T10:00:15;1.83;;;1.67;;
19566;SDS011;9930;49.240;8.548;2023-07-30T10:02:46;2.05;;;1.70;;
19566;SDS011;9930;49.240;8.548;2023-07-30T10:05:17;2.20;;;2.00;;
19566;SDS011;9930;49.240;8.548;2023-07-30T10:07:56;1.73;;;1.60;;
19566;SDS011;9930;49.240;8.548;2023-07-30T10:10:27;1.77;;;1.60;;
19566;SDS011;9930;49.240;8.548;2023-07-30T10:12:57;1.95;;;1.80;;
19566;SDS011;9930;49.240;8.548;2023-07-30T10:15:33;1.60;;;1.50;;
19566;SDS011;9930;49.240;8.548;2023-07-30T10:18:02;1.95;;;1.85;;
19566;SDS011;9930;49.240;8.548;2023-07-30T10:20:31;2.05;;;1.70;;
19566;SDS011;9930;49.240;8.548;2023-07-30T10:22:58;1.73;;;1.63;;
19566;SDS011;9930;49.240;8.548;2023-07-30T10:25:29;1.50;;;1.40;;
19566;SDS011;9930;49.240;8.548;2023-07-30T10:30:58;2.38;;;1.70;;
19566;SDS011;9930;49.240;8.548;2023-07-30T10:37:03;1.65;;;1.55;;
19566;SDS011;9930;49.240;8.548;2023-07-30T10:39:20;1.40;;;1.30;;
19566;SDS011;9930;49.240;8.548;2023-07-30T10:41:55;1.40;;;1.30;;
19566;SDS011;9930;49.240;8.548;2023-07-30T10:44:24;2.05;;;1.50;;
19566;SDS011;9930;49.240;8.548;2023-07-30T10:46:55;2.10;;;1.45;;
19566;SDS011;9930;49.240;8.548;2023-07-30T10:49:25;1.27;;;1.15;;
19566;SDS011;9930;49.240;8.548;2023-07-30T10:51:54;1.60;;;1.50;;
19566;SDS011;9930;49.240;8.548;2023-07-30T10:54:22;1.50;;;1.40;;
19566;SDS011;9930;49.240;8.548;2023-07-30T10:56:50;1.40;;;1.30;;
19566;SDS011;9930;49.240;8.548;2023-07-30T10:59:19;1.45;;;1.35;;
19566;SDS011;9930;49.240;8.548;2023-07-30T11:01:50;1.10;;;1.10;;
19566;SDS011;9930;49.240;8.548;2023-07-30T11:04:19;1.30;;;1.20;;
19566;SDS011;9930;49.240;8.548;2023-07-30T11:06:49;1.33;;;1.20;;
19566;SDS011;9930;49.240;8.548;2023-07-30T11:09:21;1.55;;;1.20;;
19566;SDS011;9930;49.240;8.548;2023-07-30T11:11:50;1.30;;;1.20;;
19566;SDS011;9930;49.240;8.548;2023-07-30T11:14:20;0.95;;;0.90;;
19566;SDS011;9930;49.240;8.548;2023-07-30T11:16:57;0.80;;;0.80;;
19566;SDS011;9930;49.240;8.548;2023-07-30T11:19:24;2.97;;;1.50;;
19566;SDS011;9930;49.240;8.548;2023-07-30T11:21:55;1.08;;;0.98;;
19566;SDS011;9930;49.240;8.548;2023-07-30T11:24:22;1.08;;;1.00;;
19566;SDS011;9930;49.240;8.548;2023-07-30T11:27:08;2.05;;;1.20;;
19566;SDS011;9930;49.240;8.548;2023-07-30T11:29:34;1.20;;;1.10;;
19566;SDS011;9930;49.240;8.548;2023-07-30T11:32:04;1.20;;;1.08;;
19566;SDS011;9930;49.240;8.548;2023-07-30T11:34:30;0.93;;;0.93;;
19566;SDS011;9930;49.240;8.548;2023-07-30T11:36:56;1.42;;;1.30;;
19566;SDS011;9930;49.240;8.548;2023-07-30T11:39:27;1.13;;;1.13;;
19566;SDS011;9930;49.240;8.548;2023-07-30T11:41:53;1.40;;;1.27;;
19566;SDS011;9930;49.240;8.548;2023-07-30T11:44:29;1.20;;;1.10;;
19566;SDS011;9930;49.240;8.548;2023-07-30T11:47:00;1.38;;;1.27;;
19566;SDS011;9930;49.240;8.548;2023-07-30T11:49:28;1.65;;;1.23;;
19566;SDS011;9930;49.240;8.548;2023-07-30T11:52:05;1.33;;;1.23;;
19566;SDS011;9930;49.240;8.548;2023-07-30T11:54:35;1.10;;;1.10;;
19566;SDS011;9930;49.240;8.548;2023-07-30T11:57:01;1.63;;;1.20;;
19566;SDS011;9930;49.240;8.548;2023-07-30T11:59:27;1.95;;;1.10;;
19566;SDS011;9930;49.240;8.548;2023-07-30T12:01:52;1.50;;;1.30;;
19566;SDS011;9930;49.240;8.548;2023-07-30T12:04:21;1.50;;;1.13;;
19566;SDS011;9930;49.240;8.548;2023-07-30T12:06:49;1.40;;;1.30;;
19566;SDS011;9930;49.240;8.548;2023-07-30T12:09:21;1.77;;;1.20;;
19566;SDS011;9930;49.240;8.548;2023-07-30T12:11:54;1.23;;;1.10;;
19566;SDS011;9930;49.240;8.548;2023-07-30T12:14:28;1.92;;;1.08;;
19566;SDS011;9930;49.240;8.548;2023-07-30T12:17:14;1.55;;;1.40;;
19566;SDS011;9930;49.240;8.548;2023-07-30T12:19:42;1.40;;;1.30;;
19566;SDS011;9930;49.240;8.548;2023-07-30T12:22:11;1.75;;;1.50;;
19566;SDS011;9930;49.240;8.548;2023-07-30T12:24:38;1.30;;;1.20;;
19566;SDS011;9930;49.240;8.548;2023-07-30T12:27:07;2.50;;;1.73;;
19566;SDS011;9930;49.240;8.548;2023-07-30T12:29:33;1.75;;;1.48;;
19566;SDS011;9930;49.240;8.548;2023-07-30T12:32:00;1.38;;;1.27;;
19566;SDS011;9930;49.240;8.548;2023-07-30T12:34:26;1.63;;;1.40;;
19566;SDS011;9930;49.240;8.548;2023-07-30T12:36:52;1.30;;;1.10;;
19566;SDS011;9930;49.240;8.548;2023-07-30T12:39:18;1.55;;;1.35;;
19566;SDS011;9930;49.240;8.548;2023-07-30T12:41:43;2.45;;;1.80;;
19566;SDS011;9930;49.240;8.548;2023-07-30T12:44:12;2.28;;;1.35;;
19566;SDS011;9930;49.240;8.548;2023-07-30T12:46:38;2.22;;;1.40;;
19566;SDS011;9930;49.240;8.548;2023-07-30T12:49:09;2.03;;;1.50;;
19566;SDS011;9930;49.240;8.548;2023-07-30T12:51:37;1.98;;;1.30;;
19566;SDS011;9930;49.240;8.548;2023-07-30T12:54:05;2.10;;;1.35;;
19566;SDS011;9930;49.240;8.548;2023-07-30T12:56:30;1.73;;;1.50;;
19566;SDS011;9930;49.240;8.548;2023-07-30T12:58:56;2.25;;;1.45;;
19566;SDS011;9930;49.240;8.548;2023-07-30T13:01:22;1.73;;;1.60;;
19566;SDS011;9930;49.240;8.548;2023-07-30T13:03:48;1.60;;;1.35;;
19566;SDS011;9930;49.240;8.548;2023-07-30T13:06:16;1.45;;;1.33;;
19566;SDS011;9930;49.240;8.548;2023-07-30T13:08:42;1.70;;;1.60;;
19566;SDS011;9930;49.240;8.548;2023-07-30T13:11:08;1.50;;;1.40;;
19566;SDS011;9930;49.240;8.548;2023-07-30T13:13:36;2.05;;;1.30;;
19566;SDS011;9930;49.240;8.548;2023-07-30T13:16:02;1.70;;;1.60;;
19566;SDS011;9930;49.240;8.548;2023-07-30T13:18:28;2.90;;;1.60;;
19566;SDS011;9930;49.240;8.548;2023-07-30T13:20:54;2.45;;;1.63;;
19566;SDS011;9930;49.240;8.548;2023-07-30T13:23:20;1.70;;;1.52;;
19566;SDS011;9930;49.240;8.548;2023-07-30T13:25:48;1.50;;;1.40;;
19566;SDS011;9930;49.240;8.548;2023-07-30T13:28:14;2.25;;;1.42;;
19566;SDS011;9930;49.240;8.548;2023-07-30T13:30:42;1.77;;;1.50;;
19566;SDS011;9930;49.240;8.548;2023-07-30T13:33:08;1.45;;;1.30;;
19566;SDS011;9930;49.240;8.548;2023-07-30T13:35:37;1.85;;;1.48;;
19566;SDS011;9930;49.240;8.548;2023-07-30T13:38:04;1.30;;;1.20;;
19566;SDS011;9930;49.240;8.548;2023-07-30T13:40:32;2.20;;;1.42;;
19566;SDS011;9930;49.240;8.548;2023-07-30T13:43:00;1.73;;;1.30;;
19566;SDS011;9930;49.240;8.548;2023-07-30T13:45:26;2.53;;;1.40;;
19566;SDS011;9930;49.240;8.548;2023-07-30T13:47:54;1.75;;;1.30;;
19566;SDS011;9930;49.240;8.548;2023-07-30T13:50:20;2.13;;;1.67;;
19566;SDS011;9930;49.240;8.548;2023-07-30T13:52:46;1.55;;;1.35;;
19566;SDS011;9930;49.240;8.548;2023-07-30T13:55:14;2.20;;;1.63;;
19566;SDS011;9930;49.240;8.548;2023-07-30T13:57:42;1.88;;;1.45;;
19566;SDS011;9930;49.240;8.548;2023-07-30T14:00:12;1.98;;;1.40;;
19566;SDS011;9930;49.240;8.548;2023-07-30T14:02:42;2.53;;;1.50;;
19566;SDS011;9930;49.240;8.548;2023-07-30T14:05:13;2.08;;;1.52;;
19566;SDS011;9930;49.240;8.548;2023-07-30T14:07:42;1.80;;;1.33;;
19566;SDS011;9930;49.240;8.548;2023-07-30T14:10:09;2.47;;;1.60;;
19566;SDS011;9930;49.240;8.548;2023-07-30T14:12:34;1.40;;;1.30;;
19566;SDS011;9930;49.240;8.548;2023-07-30T14:15:01;1.80;;;1.48;;
19566;SDS011;9930;49.240;8.548;2023-07-30T14:17:27;2.65;;;1.25;;
19566;SDS011;9930;49.240;8.548;2023-07-30T14:19:52;2.17;;;1.40;;
19566;SDS011;9930;49.240;8.548;2023-07-30T14:22:21;2.03;;;1.67;;
19566;SDS011;9930;49.240;8.548;2023-07-30T14:24:46;1.70;;;1.35;;
19566;SDS011;9930;49.240;8.548;2023-07-30T14:27:15;1.58;;;1.45;;
19566;SDS011;9930;49.240;8.548;2023-07-30T14:29:40;1.73;;;1.30;;
19566;SDS011;9930;49.240;8.548;2023-07-30T14:32:08;2.53;;;1.60;;
19566;SDS011;9930;49.240;8.548;2023-07-30T14:34:34;2.30;;;1.48;;
19566;SDS011;9930;49.240;8.548;2023-07-30T14:37:04;2.38;;;1.20;;
19566;SDS011;9930;49.240;8.548;2023-07-30T14:39:30;1.77;;;1.40;;
19566;SDS011;9930;49.240;8.548;2023-07-30T14:41:55;2.22;;;1.30;;
19566;SDS011;9930;49.240;8.548;2023-07-30T14:44:23;1.55;;;1.20;;
19566;SDS011;9930;49.240;8.548;2023-07-30T14:46:50;1.63;;;1.13;;
19566;SDS011;9930;49.240;8.548;2023-07-30T14:49:21;1.50;;;1.20;;
19566;SDS011;9930;49.240;8.548;2023-07-30T14:51:50;1.88;;;1.10;;
19566;SDS011;9930;49.240;8.548;2023-07-30T14:54:16;2.75;;;1.40;;
19566;SDS011;9930;49.240;8.548;2023-07-30T14:56:43;2.95;;;1.40;;
19566;SDS011;9930;49.240;8.548;2023-07-30T14:59:12;1.38;;;1.20;;
19566;SDS011;9930;49.240;8.548;2023-07-30T15:01:38;2.03;;;1.33;;
19566;SDS011;9930;49.240;8.548;2023-07-30T15:04:04;1.85;;;1.40;;
19566;SDS011;9930;49.240;8.548;2023-07-30T15:06:30;1.90;;;1.38;;
19566;SDS011;9930;49.240;8.548;2023-07-30T15:08:57;1.92;;;1.50;;
19566;SDS011;9930;49.240;8.548;2023-07-30T15:11:26;2.58;;;1.40;;
19566;SDS011;9930;49.240;8.548;2023-07-30T15:13:55;1.45;;;1.30;;